Abadan Airport
OIAA : now visible

Airfield :











YOU CAN JOIN US ON...

 
LOGIN :

Register | Disclaimer

   EN    FR    IT 

 









Legend :    VFR   Marginal VFR   IFR   Intensive IFR   Very Intensive IFR
Visi :
Ceiling :
>= 8 km
>= 3000ft
5 to 8 km
1000 to 3000 ft
1500m to 5 km
500 to 1000 ft
800 to 1500m
200 to 500 ft
< 800m
< 200 ft
Symbols :   Thunderstorms  Fog  Heavy snow  Heavy precipitations  Wind > 20 kt






- Airport Elevation : 10 ft
- IATA code : ABD


OIAA - Abadan

CURRENT METAR :
  • 231600Z 28004KT CAVOK 18/09 Q1018

EXPIRED METARs :
  • 231500Z 29006KT CAVOK 19/08 Q1018
  • 231400Z 29010KT CAVOK 21/08 Q1017

TAF TAF OIAA
Valid from the 23 at 12:00 until the 24 at 18:00 UTC


231100Z 2312/2418 30010KT 7000 NSC
TEMPO 2312/2315 30020KT
BECMG 2320/2322 30008KT 3000 BR
BECMG 2404/2406 30010KT 7000
TEMPO 2406/2415 30020KT
OIIX FIR / Asia



MET'MAP, your aeronautical weather chart ! - Copyright ORBIFLY December 2007 - Disclaimer

ORBIFLY MET'MAP TEAM :

Programming & Development : Alexandra Zaïnal
Concept & original design : Baudouin d'Aumeries
Assistance for programming : Marc-Olivier Méhu
Technical & hardware support : Manuel Goepfert

Contact : metmap@orbifly.com




SOURCES & CREDITS :

   NOAA       Earth
Advisory